Trails of Hope

Age Group Results

February 25, 2017


Pro-Fit Event Services LLC


Men: Top Finishers 1-11 12-15 16-19 25-29 30-34 35-39 40-44 45-49 50-54 55-59 60-64 65-69 70-99
Women: Top Finishers 1-11 12-15 16-19 20-24 25-29 30-34 35-39 40-44 45-49 50-54 55-59 60-64 70-99

Trail 5K

Top

Female Open Winners

Place Name City Bib No Age Overall Total Time Pace
1 Kayla Rivera Copperas Cove 113 25 21 31:00.0 10:00/M
Top

Male Open Winners

Place Name City Bib No Age Overall Total Time Pace
1 Merrick Calabaza San Felipe Pueblo 215 20 1 20:23.9 6:35/M
Top

Female 11 and Under

Place Name City Bib No Age Overall Total Time Pace
1 Sarah Cribb Temple TX 242 8 123 1:07:12.3 21:41/M
Top

Male 11 and Under

Place Name City Bib No Age Overall Total Time Pace
1 Dillon Demay Belton 139 8 15 30:25.1 9:49/M
2 Riley Rhodes Temple 189 9 17 30:37.9 9:53/M
3 Joel Secrist Jr. Harker Heights 218 10 38 34:09.1 11:01/M
4 Gordon Shadwick Killeen 123 9 55 38:41.2 12:29/M
5 Dustin Wilson Killeen 200 9 57 38:58.9 12:34/M
6 Timothy Shadwick Killeen 124 7 80 47:13.6 15:14/M
Top

Female 12 to 15

Place Name City Bib No Age Overall Total Time Pace
1 Caroline Moehlenbrock Nolanville 192 13 27 31:14.2 10:05/M
2 Alexis Lampley Killeen 147 15 68 41:37.7 13:25/M
3 Blair Lewis Killeen 195 14 92 51:24.4 16:35/M
4 Olivia Crim Belton TX 244 13 125 1:10:44.2 22:49/M
5 Dindy Brown Heidenheimer TX 245 12 126 1:10:45.2 22:49/M
Top

Male 12 to 15

Place Name City Bib No Age Overall Total Time Pace
1 Paxton Lyons Belton 187 14 5 21:07.0 6:49/M
2 Turtle Powell Kempner 216 14 6 24:40.5 7:57/M
3 Brandt Menzie Belton TX 238 14 7 24:45.2 7:59/M
4 Daniel Torres Rivera Belton TX 237 14 14 30:13.8 9:45/M
5 Jordan Holmes Killeen 122 15 31 33:17.7 10:44/M
6 Julio Llompart Killeen 169 13 71 41:46.1 13:28/M
7 Joshua Cribb Temple TX 243 12 73 42:09.2 13:36/M
Top

Female 16 to 19

Place Name City Bib No Age Overall Total Time Pace
1 Kaylee Welch Copperas Cove 131 16 115 58:34.4 18:54/M
Top

Male 16 to 19

Place Name City Bib No Age Overall Total Time Pace
1 John Thies Temple 108 17 10 25:02.4 8:05/M
Top

Female 20 to 24

Place Name City Bib No Age Overall Total Time Pace
1 Haily Yanez Temple 186 24 48 37:50.3 12:12/M
2 Sonia Nava Fort Hood 223 24 54 38:31.3 12:25/M
3 Wilson Everett Belton 228 20 104 56:17.4 18:09/M
4 Miranda Fuller Belton TX 230 20 112 58:29.6 18:52/M
5 Marlee Jackson Belton 214 21 114 58:31.5 18:53/M
Top

Female 25 to 29

Place Name City Bib No Age Overall Total Time Pace
1 Christina Kim Temple 198 25 26 31:10.9 10:03/M
2 Sherlyn Sun Killeen 212 26 53 38:29.6 12:25/M
3 Brittni Terry Kempner 107 29 67 40:53.4 13:11/M
4 Kayla Reavis Killeen 196 27 72 42:00.2 13:33/M
5 Jennifer Schuman Gatesville 106 27 78 44:29.1 14:21/M
6 Kirsten Vandyke Temple 144 26 84 49:42.6 16:02/M
7 Melissa Wilson Killeen 201 27 86 50:04.3 16:09/M
8 Paige Carrasquillo Harker Heights 126 29 95 51:29.7 16:36/M
9 Nicole Sherwood Belton 145 29 121 1:06:32.5 21:28/M
Top

Male 25 to 29

Place Name City Bib No Age Overall Total Time Pace
1 Kinele Webber Belton TX 250 27 30 32:19.9 10:25/M
2 Mark Wolfenberger Belton 227 25 130 1:18:17.5 25:15/M
Top

Female 30 to 34

Place Name City Bib No Age Overall Total Time Pace
1 Maricela Hernandez Killeen 191 31 44 37:10.5 11:59/M
2 Tanya Hernandez Killeen 149 34 51 38:19.1 12:22/M
3 Alisha Cotner Copperas Cove 142 32 59 39:13.2 12:39/M
4 Miranda Gillenwater Belton 140 33 77 43:39.6 14:05/M
5 Alice Clement Killeen TX 232 33 82 47:59.2 15:29/M
6 Sarah Phillips Killeen 155 33 101 53:49.5 17:22/M
7 Vannisabel Stalcup Copperas Cove TX 575 30 107 57:03.4 18:24/M
8 Sundai Anderson Killeen 193 30 108 57:03.9 18:24/M
9 Jessica Cobb Killeen 150 33 120 1:05:55.4 21:16/M
10 Tara Smith Belton 226 32 129 1:18:16.3 25:15/M
Top

Male 30 to 34

Place Name City Bib No Age Overall Total Time Pace
1 Christopher Nixon Belton 211 33 9 24:55.9 8:02/M
2 Jordan Demay Belton 138 31 16 30:25.3 9:49/M
3 David Wilson Killeen 199 33 33 33:42.8 10:52/M
4 John Richter Belton TX 249 31 34 33:48.4 10:54/M
5 Geraldo Rivera Copperas Cove 112 31 58 39:05.8 12:36/M
Top

Female 35 to 39

Place Name City Bib No Age Overall Total Time Pace
1 Kelly Rhodes Temple 188 36 22 31:01.4 10:00/M
2 Khristan Hammonds Belton TX 233 39 25 31:07.7 10:02/M
3 Kellly Kunders Sabine Pass TX 229 39 28 31:14.8 10:05/M
4 Renee Stoughton Nolanville 133 36 41 36:56.6 11:55/M
5 Barb Lewis Killeen 194 37 45 37:11.9 12:00/M
6 Allison Smith Belton 109 37 50 38:16.9 12:21/M
7 Susan Martin Belton 205 38 64 39:42.4 12:48/M
8 Windee Skrabanek Temple 207 38 75 42:43.0 13:47/M
9 Pamela Campos Killeen 168 35 79 46:29.8 15:00/M
10 Andrea Bazer Killeen 202 35 81 47:51.5 15:26/M
11 Yesenia Galvan Killeen 154 39 89 50:46.2 16:23/M
12 Andrea Ruff Belton 182 36 93 51:24.5 16:35/M
13 Sylvia Chipkin Killeen 160 38 94 51:27.2 16:36/M
14 Jennifer Shadwick Killeen 121 35 119 1:04:20.2 20:45/M
15 Deanna Ivy Belton 136 35 122 1:06:32.9 21:28/M
Top

Male 35 to 39

Place Name City Bib No Age Overall Total Time Pace
1 Jonathan Castillo Harker Heights 177 35 3 20:46.7 6:42/M
2 Chad Weaver Harker Heights TX 167 36 4 20:48.4 6:43/M
3 Chad Hammonds Belton TX 577 38 12 27:19.4 8:49/M
4 Joseph Sparks Belton 116 35 13 28:35.7 9:13/M
5 Brian Trumpower Killeen 151 37 37 34:08.2 11:01/M
6 Michael Lampley Killeen 146 35 70 41:43.2 13:27/M
Top

Female 40 to 44

Place Name City Bib No Age Overall Total Time Pace
1 Lisa Griffin Killeen 165 41 23 31:04.3 10:01/M
2 Kristi Miller Belton 117 44 56 38:57.2 12:34/M
3 Shelly Rickel Hico 127 42 61 39:17.3 12:40/M
4 Martha Perez Killeen TX 240 41 83 48:13.4 15:33/M
5 Kristie Yonker Killeen 119 44 88 50:23.6 16:15/M
6 Sheri Welch Copperas Cove 130 41 106 57:01.1 18:24/M
7 Lila Kirkpatrick Killeen 132 40 109 57:10.0 18:26/M
8 Mj Rorick Killeen 225 41 111 57:39.4 18:36/M
9 Karina Cavazos-Buxton Troy 183 41 117 1:03:24.9 20:27/M
10 Christie Torres Temple TX 241 40 124 1:07:25.7 21:45/M
Top

Male 40 to 44

Place Name City Bib No Age Overall Total Time Pace
1 Shawn Griffin Killeen 166 43 2 20:28.2 6:36/M
2 William McCollum Temple 203 41 19 30:54.0 9:58/M
3 Isaac Rickel Hico 128 42 32 33:25.0 10:47/M
4 Chad Ruff Belton 181 40 91 51:23.9 16:35/M
Top

Female 45 to 49

Place Name City Bib No Age Overall Total Time Pace
1 Lonnie Ellis Copperas Cove 178 49 39 36:41.5 11:50/M
2 Rebecca Milligan Temple TX 248 45 40 36:48.4 11:52/M
3 Irma Saucedo Bryan TX 247 48 60 39:16.0 12:40/M
4 Jen Warren Killeen 125 45 74 42:14.0 13:37/M
5 Lauri Kvalevog Killeen 104 48 76 42:46.3 13:48/M
6 Conniesue Gladwell Killeen 157 49 85 49:55.8 16:06/M
7 Renee Larson Killeen 101 47 98 52:03.3 16:47/M
8 Lisa Everett Belton 180 48 105 56:17.4 18:09/M
9 Tammi Mitchum Belton 213 46 113 58:31.2 18:53/M
10 Sheila Cook Killeen 118 49 118 1:03:33.8 20:30/M
11 Almana Oaks Belton TX 239 47 128 1:18:15.9 25:15/M
Top

Male 45 to 49

Place Name City Bib No Age Overall Total Time Pace
1 Steve Walden Killeen 210 47 11 25:15.1 8:09/M
2 Stuart Lindland Fort Hood TX 234 46 20 30:58.1 9:59/M
3 Saucedo Raymond Bryan TX 246 46 24 31:04.4 10:01/M
4 Joel Secrist Harker Heights 219 45 46 37:17.7 12:02/M
5 Michael Fuller Temple TX 235 48 47 37:49.6 12:12/M
6 Michael Ebers Belton 159 48 52 38:25.5 12:24/M
Top

Female 50 to 54

Place Name City Bib No Age Overall Total Time Pace
1 Lucy Ploeckelmann Fort Hood 148 54 63 39:38.4 12:47/M
2 Karen Oliver Troy 100 53 65 39:50.6 12:51/M
3 Angela Fuller Belton 185 50 96 51:41.0 16:40/M
4 Anna Sampson Copperas Cove 103 54 99 52:51.8 17:03/M
5 Marty Gober Belton 161 53 102 54:06.0 17:27/M
6 Rosalinda Vasquez-Turner Belton 162 52 103 54:10.8 17:28/M
7 Sue Mears Guys Mills 134 51 116 1:03:24.6 20:27/M
Top

Male 50 to 54

Place Name City Bib No Age Overall Total Time Pace
1 Jeff Heckathorn Harker Heights 102 54 29 31:28.6 10:09/M
2 Daniel Cantrell Nolanville 152 53 90 50:46.4 16:23/M
Top

Female 55 to 59

Place Name City Bib No Age Overall Total Time Pace
1 Barbara Buckles Temple 208 59 62 39:35.5 12:46/M
2 Cindy Cole Belton 120 55 87 50:15.3 16:13/M
Top

Male 55 to 59

Place Name City Bib No Age Overall Total Time Pace
1 Tom Davis Belton 114 57 43 37:02.0 11:57/M
2 Charles Rich Belton 221 57 127 1:13:42.7 23:46/M
Top

Female 60 to 64

Place Name City Bib No Age Overall Total Time Pace
1 Angie Wilson Harker Heights 562 62 35 33:53.6 10:56/M
2 Brenda Smith Lampasas 163 62 110 57:23.5 18:31/M
Top

Male 60 to 64

Place Name City Bib No Age Overall Total Time Pace
1 David Bradley Hico 129 61 8 24:47.4 8:00/M
2 Rob Sanders Woodway TX 231 64 18 30:51.8 9:57/M
3 Neal White Salado 204 61 36 33:59.4 10:58/M
4 Clarence Sudler Harker Heights 190 64 42 37:01.8 11:56/M
Top

Male 65 to 69

Place Name City Bib No Age Overall Total Time Pace
1 Mike Stokke Killeen 164 68 49 38:15.1 12:20/M
2 Ricardo Rodriguez Temple TX 236 69 66 40:07.1 12:56/M
3 Paul Stokke Harker Heights 206 68 97 51:57.5 16:45/M
Top

Female 70 and Over

Place Name City Bib No Age Overall Total Time Pace
1 Rosemary Stampley Belton 220 71 100 53:39.0 17:18/M
Top

Male 70 and Over

Place Name City Bib No Age Overall Total Time Pace
1 Dennis Alston Calvert 153 73 69 41:42.7 13:27/M